createdAt,value
2017-11-26T00:01:00.406Z,3.00
2017-11-26T00:03:27.841Z,3.00
2017-11-26T00:05:55.664Z,3.00
2017-11-26T00:08:23.416Z,3.00
2017-11-26T00:10:50.844Z,3.00
2017-11-26T00:13:18.281Z,3.00
2017-11-26T00:15:46.219Z,3.00
2017-11-26T00:18:13.650Z,3.00
2017-11-26T00:20:41.085Z,3.00
2017-11-26T00:23:08.530Z,3.00
2017-11-26T00:25:35.956Z,3.10
2017-11-26T00:28:03.781Z,3.10
2017-11-26T00:30:31.537Z,3.10
2017-11-26T00:32:58.990Z,3.10
2017-11-26T00:35:26.408Z,3.00
2017-11-26T00:37:54.331Z,3.00
2017-11-26T00:40:21.767Z,3.00
2017-11-26T00:42:49.197Z,3.00
2017-11-26T00:45:16.662Z,3.00
2017-11-26T00:47:44.082Z,3.00
2017-11-26T00:50:11.914Z,3.00
2017-11-26T00:52:39.457Z,3.00
2017-11-26T00:55:06.878Z,2.90
2017-11-26T00:57:34.692Z,2.90
2017-11-26T01:00:02.119Z,2.90
2017-11-26T01:02:29.901Z,2.80
2017-11-26T01:04:57.329Z,2.80
2017-11-26T01:07:24.749Z,2.80
2017-11-26T01:09:52.596Z,2.70
2017-11-26T01:12:20.026Z,2.70
2017-11-26T01:14:47.462Z,2.70
2017-11-26T01:17:14.897Z,2.70
2017-11-26T01:19:42.321Z,2.70
2017-11-26T01:22:09.777Z,2.70
2017-11-26T01:24:37.226Z,2.70
2017-11-26T01:27:04.631Z,2.70
2017-11-26T01:29:32.086Z,2.60
2017-11-26T01:31:59.511Z,2.60
2017-11-26T01:34:27.357Z,2.60
2017-11-26T01:36:55.086Z,2.60
2017-11-26T01:39:22.509Z,2.60
2017-11-26T01:41:49.940Z,2.60
2017-11-26T01:44:17.790Z,2.60
2017-11-26T01:46:45.224Z,2.60
2017-11-26T01:49:12.669Z,2.50
2017-11-26T01:51:40.431Z,2.60
2017-11-26T01:54:07.859Z,2.60
2017-11-26T01:56:35.292Z,2.60
2017-11-26T01:59:03.137Z,2.50
2017-11-26T02:01:30.576Z,2.50
2017-11-26T02:03:58.842Z,2.60
2017-11-26T02:06:27.402Z,2.60
2017-11-26T02:08:54.847Z,2.70
2017-11-26T02:11:22.274Z,2.60
2017-11-26T02:13:50.410Z,2.60
2017-11-26T02:16:17.845Z,2.60
2017-11-26T02:18:45.273Z,2.60
2017-11-26T02:21:12.722Z,2.60
2017-11-26T02:23:40.154Z,2.60
2017-11-26T02:26:07.981Z,2.60
2017-11-26T02:28:35.670Z,2.60
2017-11-26T02:31:03.129Z,2.60
2017-11-26T03:41:13.033Z,2.50
2017-11-26T03:43:40.465Z,2.50
2017-11-26T03:46:07.894Z,2.50
2017-11-26T03:48:35.930Z,2.40
2017-11-26T03:51:03.364Z,2.40
2017-11-26T03:53:30.795Z,2.40
2017-11-26T03:55:58.244Z,2.50
2017-11-26T03:58:25.665Z,2.50
2017-11-26T04:00:53.102Z,2.40
2017-11-26T04:03:20.966Z,2.50
2017-11-26T04:05:48.397Z,2.50
2017-11-26T04:08:15.834Z,2.50
2017-11-26T04:10:43.833Z,2.50
2017-11-26T04:13:11.262Z,2.40
2017-11-26T04:15:38.689Z,2.50
2017-11-26T04:18:06.518Z,2.40
2017-11-26T04:20:33.960Z,2.40
2017-11-26T04:23:01.507Z,2.40
2017-11-26T04:25:28.942Z,2.40
2017-11-26T04:27:56.377Z,2.40
2017-11-26T04:30:24.310Z,2.40
2017-11-26T04:32:51.742Z,2.40
2017-11-26T04:35:19.175Z,2.50
2017-11-26T04:37:46.626Z,2.40
2017-11-26T04:40:14.055Z,2.30
2017-11-26T04:42:41.879Z,2.40
2017-11-26T04:45:09.729Z,2.40
2017-11-26T04:47:37.162Z,2.40
2017-11-26T04:50:04.589Z,2.40
2017-11-26T04:52:33.248Z,2.30
2017-11-26T04:55:00.682Z,2.40
2017-11-26T04:57:28.106Z,2.40
2017-11-26T04:59:55.555Z,2.30
2017-11-26T05:02:22.988Z,2.40
2017-11-26T05:04:50.810Z,2.50
2017-11-26T05:07:18.470Z,2.60
2017-11-26T05:09:45.898Z,2.60
2017-11-26T05:12:13.329Z,2.60
2017-11-26T05:14:41.254Z,2.70
2017-11-26T05:17:08.693Z,2.70
2017-11-26T05:19:36.115Z,2.70
2017-11-26T05:22:03.549Z,2.70
2017-11-26T05:24:31.383Z,2.80
2017-11-26T05:26:58.834Z,2.80
2017-11-26T05:29:26.275Z,2.80
2017-11-26T05:31:53.748Z,2.80
2017-11-26T05:34:21.266Z,2.90
2017-11-26T05:36:48.721Z,2.90
2017-11-26T05:39:16.160Z,2.90
2017-11-26T05:41:43.990Z,2.90
2017-11-26T05:44:11.433Z,2.90
2017-11-26T05:46:38.865Z,3.00
2017-11-26T05:49:06.397Z,3.00
2017-11-26T05:51:33.831Z,3.00
2017-11-26T05:54:01.658Z,3.00
2017-11-26T05:56:29.110Z,3.00
2017-11-26T05:58:56.550Z,3.00
2017-11-26T06:01:23.987Z,3.00
2017-11-26T06:03:51.440Z,3.00
2017-11-26T06:06:18.873Z,3.00
2017-11-26T06:08:46.702Z,3.10
2017-11-26T06:11:14.162Z,3.10
2017-11-26T06:13:41.594Z,3.10
2017-11-26T06:16:09.039Z,3.10
2017-11-26T06:18:36.489Z,3.10
2017-11-26T06:21:03.922Z,3.10
2017-11-26T06:23:31.354Z,3.20
2017-11-26T06:25:59.194Z,3.20
2017-11-26T06:28:26.635Z,3.20
2017-11-26T06:30:54.077Z,3.20
2017-11-26T06:33:21.756Z,3.20
2017-11-26T06:35:49.194Z,3.30
2017-11-26T06:38:16.629Z,3.30
2017-11-26T06:40:44.083Z,3.30
2017-11-26T06:43:11.514Z,3.40
2017-11-26T06:45:39.338Z,3.40
2017-11-26T06:48:07.039Z,3.40
2017-11-26T06:50:34.870Z,3.40
2017-11-26T06:53:02.299Z,3.40
2017-11-26T06:55:29.760Z,3.30
2017-11-26T06:57:57.198Z,3.30
2017-11-26T07:00:24.626Z,3.40
2017-11-26T07:02:52.848Z,3.30
2017-11-26T07:05:20.278Z,3.30
2017-11-26T07:07:47.715Z,3.30
2017-11-26T07:10:15.575Z,3.30
2017-11-26T07:12:43.414Z,3.30
2017-11-26T07:15:10.844Z,3.30
2017-11-26T07:17:38.602Z,3.30
2017-11-26T07:20:06.033Z,3.30
2017-11-26T07:22:33.466Z,3.30
2017-11-26T07:25:01.327Z,3.30
2017-11-26T07:27:29.138Z,3.30
2017-11-26T07:29:56.581Z,3.40
2017-11-26T07:32:24.041Z,3.30
2017-11-26T07:37:25.757Z,3.40
2017-11-26T07:39:53.583Z,3.40
2017-11-26T07:42:21.017Z,3.40
2017-11-26T07:44:48.471Z,3.40
2017-11-26T07:47:15.923Z,3.50
2017-11-26T07:49:43.350Z,3.50
2017-11-26T07:52:11.274Z,3.50
2017-11-26T07:54:38.716Z,3.50
2017-11-26T07:57:06.151Z,3.40
2017-11-26T07:59:33.595Z,3.40
2017-11-26T08:02:01.035Z,3.40
2017-11-26T08:04:29.122Z,3.50
2017-11-26T08:06:56.567Z,3.50
2017-11-26T08:09:24.394Z,3.50
2017-11-26T08:11:52.141Z,3.50
2017-11-26T08:14:19.573Z,3.50
2017-11-26T08:16:46.997Z,3.50
2017-11-26T08:19:14.858Z,3.50
2017-11-26T08:21:42.684Z,3.50
2017-11-26T08:24:10.125Z,3.50
2017-11-26T08:26:37.715Z,3.50
2017-11-26T08:29:05.143Z,3.50
2017-11-26T08:31:32.602Z,3.60
2017-11-26T08:34:00.423Z,3.60
2017-11-26T08:36:28.233Z,3.60
2017-11-26T08:38:55.678Z,3.70
2017-11-26T08:41:24.058Z,3.60
2017-11-26T08:43:51.502Z,3.70
2017-11-26T08:46:18.949Z,3.70
2017-11-26T08:48:46.378Z,3.70
2017-11-26T08:51:14.209Z,3.70
2017-11-26T08:53:41.671Z,3.70
2017-11-26T08:56:09.103Z,3.80
2017-11-26T08:58:36.544Z,3.70
2017-11-26T09:01:04.209Z,3.80
2017-11-26T09:03:31.653Z,3.80
2017-11-26T09:05:59.074Z,3.80
2017-11-26T09:08:29.258Z,3.80
2017-11-26T09:10:56.690Z,3.80
2017-11-26T09:13:24.124Z,3.90
2017-11-26T09:15:51.915Z,3.90
2017-11-26T09:18:19.671Z,3.90
2017-11-26T09:20:47.090Z,4.00
2017-11-26T09:23:15.094Z,3.90
2017-11-26T09:25:42.527Z,4.00
2017-11-26T09:28:09.955Z,4.00
2017-11-26T09:30:38.085Z,4.00
2017-11-26T09:33:05.516Z,4.00
2017-11-26T09:35:32.970Z,4.00
2017-11-26T09:38:00.431Z,4.10
2017-11-26T09:40:27.865Z,4.10
2017-11-26T09:42:55.310Z,4.10
2017-11-26T09:45:23.189Z,4.10
2017-11-26T09:47:50.626Z,4.10
2017-11-26T09:50:18.856Z,4.10
2017-11-26T09:52:46.286Z,4.10
2017-11-26T09:55:13.737Z,4.10
2017-11-26T09:57:41.415Z,4.10
2017-11-26T10:00:08.844Z,4.10
2017-11-26T10:02:36.275Z,4.10
2017-11-26T10:05:04.150Z,4.10
2017-11-26T10:07:31.990Z,4.20
2017-11-26T10:09:59.422Z,4.20
2017-11-26T10:12:27.790Z,4.20
2017-11-26T10:14:55.228Z,4.20
2017-11-26T10:17:22.695Z,4.30
2017-11-26T10:19:50.349Z,4.30
2017-11-26T10:22:17.788Z,4.40
2017-11-26T10:24:45.219Z,4.40
2017-11-26T10:27:13.070Z,4.40
2017-11-26T10:29:40.903Z,4.40
2017-11-26T10:32:08.332Z,4.40
2017-11-26T10:34:36.572Z,4.50
2017-11-26T10:37:04.404Z,4.40
2017-11-26T10:39:31.902Z,4.40
2017-11-26T10:41:59.357Z,4.40
2017-11-26T10:44:26.823Z,4.40
2017-11-26T10:46:54.252Z,4.40
2017-11-26T10:49:22.074Z,4.40
2017-11-26T10:51:49.616Z,4.40
2017-11-26T10:54:17.041Z,4.40
2017-11-26T10:56:44.532Z,4.50
2017-11-26T10:59:11.996Z,4.50
2017-11-26T11:01:39.442Z,4.50
2017-11-26T11:04:07.160Z,4.50
2017-11-26T11:06:34.662Z,4.50
2017-11-26T11:09:02.100Z,4.60
2017-11-26T11:11:29.879Z,4.60
2017-11-26T11:13:57.313Z,4.60
2017-11-26T11:16:24.734Z,4.60
2017-11-26T11:18:52.575Z,4.60
2017-11-26T11:21:20.023Z,4.70
2017-11-26T11:23:47.465Z,4.70
2017-11-26T11:26:14.904Z,4.80
2017-11-26T11:28:42.338Z,4.70
2017-11-26T11:31:09.798Z,4.70
2017-11-26T11:33:53.909Z,4.70
2017-11-26T11:36:21.353Z,4.70
2017-11-26T11:38:48.790Z,4.80
2017-11-26T11:41:16.215Z,4.70
2017-11-26T11:43:43.678Z,4.80
2017-11-26T11:46:11.102Z,4.80
2017-11-26T11:48:38.545Z,4.80
2017-11-26T11:51:05.982Z,4.80
2017-11-26T11:53:33.418Z,4.80
2017-11-26T11:56:00.847Z,4.80
2017-11-26T11:58:28.305Z,4.90
2017-11-26T12:00:55.731Z,4.90
2017-11-26T12:03:23.554Z,4.90
2017-11-26T12:05:51.095Z,4.90
2017-11-26T12:08:18.518Z,4.90
2017-11-26T12:10:45.942Z,4.90
2017-11-26T12:13:13.789Z,4.90
2017-11-26T12:15:41.221Z,4.90
2017-11-26T12:18:08.663Z,4.90
2017-11-26T12:20:36.204Z,5.00
2017-11-26T12:23:03.627Z,5.00
2017-11-26T12:25:34.649Z,5.00
2017-11-26T12:28:02.098Z,5.00
2017-11-26T12:30:29.526Z,5.00
2017-11-26T12:32:56.943Z,5.00
2017-11-26T12:35:24.782Z,5.00
2017-11-26T12:37:52.194Z,5.10
2017-11-26T12:40:19.624Z,5.10
2017-11-26T12:42:47.060Z,5.10
2017-11-26T12:45:14.895Z,5.10
2017-11-26T12:47:42.323Z,5.10
2017-11-26T12:50:09.777Z,5.10
2017-11-26T12:52:37.622Z,5.10
2017-11-26T12:55:05.487Z,5.20
2017-11-26T12:57:32.928Z,5.20
2017-11-26T13:00:00.350Z,5.10
2017-11-26T13:02:27.779Z,5.20
2017-11-26T13:04:55.215Z,5.20
2017-11-26T13:07:22.658Z,5.20
2017-11-26T13:09:50.087Z,5.10
2017-11-26T13:12:17.915Z,5.10
2017-11-26T13:14:45.378Z,5.10
2017-11-26T13:17:12.802Z,5.00
2017-11-26T13:19:40.229Z,5.10
2017-11-26T13:22:08.083Z,5.10
2017-11-26T13:24:35.513Z,5.10
2017-11-26T13:27:02.946Z,5.10
2017-11-26T13:29:30.435Z,5.10
2017-11-26T13:31:57.853Z,5.10
2017-11-26T13:34:25.284Z,5.10
2017-11-26T13:36:52.875Z,5.20
2017-11-26T13:39:20.303Z,5.20
2017-11-26T13:41:47.746Z,5.20
2017-11-26T13:44:16.266Z,5.20
2017-11-26T13:46:43.682Z,5.20
2017-11-26T13:49:11.107Z,5.20
2017-11-26T13:51:38.941Z,5.20
2017-11-26T13:54:06.378Z,5.20
2017-11-26T13:56:33.812Z,5.20
2017-11-26T13:59:01.250Z,5.20
2017-11-26T14:01:29.068Z,5.10
2017-11-26T14:03:56.497Z,5.10
2017-11-26T14:06:24.905Z,5.10
2017-11-26T14:08:52.483Z,5.00
2017-11-26T14:11:19.906Z,5.00
2017-11-26T14:13:47.375Z,5.00
2017-11-26T14:16:14.823Z,5.00
2017-11-26T14:18:42.310Z,5.00
2017-11-26T14:21:09.778Z,5.00
2017-11-26T14:23:37.635Z,5.00
2017-11-26T14:26:05.195Z,5.00
2017-11-26T14:28:33.014Z,5.00
2017-11-26T14:31:00.453Z,5.00
2017-11-26T14:33:27.897Z,5.00
2017-11-26T14:35:55.592Z,5.00
2017-11-26T14:38:23.102Z,5.00
2017-11-26T14:40:50.922Z,5.00
2017-11-26T14:43:18.483Z,5.10
2017-11-26T14:45:45.906Z,5.00
2017-11-26T14:48:14.666Z,5.00
2017-11-26T14:50:42.469Z,5.00
2017-11-26T14:53:10.678Z,5.00
2017-11-26T14:55:39.150Z,5.00
2017-11-26T14:58:06.595Z,5.00
2017-11-26T15:00:34.034Z,5.00
2017-11-26T15:03:01.524Z,5.00
2017-11-26T15:05:29.367Z,5.00
2017-11-26T15:07:56.956Z,5.00
2017-11-26T15:10:24.919Z,5.10
2017-11-26T15:12:52.972Z,5.10
2017-11-26T15:15:20.587Z,5.10
2017-11-26T15:17:48.026Z,5.10
2017-11-26T15:20:15.506Z,5.10
2017-11-26T15:22:43.127Z,5.20
2017-11-26T15:25:10.960Z,5.20
2017-11-26T15:27:38.410Z,5.20
2017-11-26T15:30:05.845Z,5.20
2017-11-26T15:32:33.283Z,5.20
2017-11-26T15:35:00.750Z,5.20
2017-11-26T15:37:28.191Z,5.20
2017-11-26T15:39:55.634Z,5.20
2017-11-26T15:42:23.078Z,5.30
2017-11-26T15:44:50.514Z,5.30
2017-11-26T15:47:18.649Z,5.30
2017-11-26T15:49:46.091Z,5.30
2017-11-26T15:52:13.537Z,5.30
2017-11-26T15:54:41.002Z,5.30
2017-11-26T15:57:08.437Z,5.30
2017-11-26T15:59:35.918Z,5.30
2017-11-26T16:02:03.387Z,5.40
2017-11-26T16:04:30.837Z,5.40
2017-11-26T16:06:58.283Z,5.40
2017-11-26T16:09:25.819Z,5.40
2017-11-26T16:11:53.254Z,5.40
2017-11-26T16:14:20.700Z,5.40
2017-11-26T16:16:48.532Z,5.40
2017-11-26T16:19:15.972Z,5.40
2017-11-26T16:21:43.414Z,5.40
2017-11-26T16:24:10.825Z,5.40
2017-11-26T16:26:38.680Z,5.40
2017-11-26T16:29:06.496Z,5.40
2017-11-26T16:31:33.921Z,5.40
2017-11-26T16:34:01.874Z,5.50
2017-11-26T16:36:29.705Z,5.50
2017-11-26T16:38:58.838Z,5.50
2017-11-26T16:41:26.266Z,5.40
2017-11-26T16:43:53.699Z,5.40
2017-11-26T16:46:21.455Z,5.40
2017-11-26T16:48:48.882Z,5.40
2017-11-26T16:51:16.507Z,5.40
2017-11-26T16:53:44.358Z,5.50
2017-11-26T16:56:11.791Z,5.50
2017-11-26T16:58:39.223Z,5.50
2017-11-26T17:01:06.680Z,5.50
2017-11-26T17:03:34.099Z,5.50
2017-11-26T17:06:02.277Z,5.50
2017-11-26T17:08:30.610Z,5.50
2017-11-26T17:10:58.032Z,5.50
2017-11-26T17:13:25.462Z,5.50
2017-11-26T17:15:53.298Z,5.50
2017-11-26T17:18:20.728Z,5.60
2017-11-26T17:20:48.149Z,5.50
2017-11-26T17:23:15.606Z,5.50
2017-11-26T17:25:43.038Z,5.50
2017-11-26T17:28:10.870Z,5.40
2017-11-26T17:30:38.528Z,5.50
2017-11-26T17:33:05.953Z,5.40
2017-11-26T17:35:33.374Z,5.40
2017-11-26T17:38:00.811Z,5.40
2017-11-26T17:40:28.641Z,5.40
2017-11-26T17:42:56.400Z,5.40
2017-11-26T17:45:23.834Z,5.40
2017-11-26T17:47:51.267Z,5.40
2017-11-26T17:50:19.110Z,5.40
2017-11-26T17:52:46.646Z,5.40
2017-11-26T17:55:14.151Z,5.50
2017-11-26T17:57:42.115Z,5.50
2017-11-26T18:00:09.949Z,5.50
2017-11-26T18:02:37.378Z,5.50
2017-11-26T18:05:04.802Z,5.50
2017-11-26T18:07:32.258Z,5.50
2017-11-26T18:09:59.694Z,5.50
2017-11-26T18:12:27.813Z,5.50
2017-11-26T18:14:55.246Z,5.50
2017-11-26T18:17:22.702Z,5.50
2017-11-26T18:19:50.126Z,5.50
2017-11-26T18:22:18.094Z,5.50
2017-11-26T18:24:46.020Z,5.50
2017-11-26T18:27:13.676Z,5.50
2017-11-26T18:29:41.310Z,5.50
2017-11-26T18:32:09.004Z,5.50
2017-11-26T18:35:00.634Z,5.50
2017-11-26T18:37:28.191Z,5.50
2017-11-26T18:39:55.635Z,5.50
2017-11-26T18:42:23.067Z,5.50
2017-11-26T18:44:50.535Z,5.40
2017-11-26T18:47:18.085Z,5.40
2017-11-26T18:49:45.526Z,5.40
2017-11-26T18:52:13.084Z,5.40
2017-11-26T18:54:41.330Z,5.40
2017-11-26T18:57:09.391Z,5.50
2017-11-26T18:59:37.230Z,5.50
2017-11-26T19:02:04.714Z,5.40
2017-11-26T19:04:32.578Z,5.40
2017-11-26T19:07:00.403Z,5.40
2017-11-26T19:09:27.859Z,5.40
2017-11-26T19:11:56.347Z,5.30
2017-11-26T19:14:23.816Z,5.40
2017-11-26T19:16:51.247Z,5.40
2017-11-26T19:19:18.712Z,5.40
2017-11-26T19:21:46.160Z,5.40
2017-11-26T19:24:13.609Z,5.40
2017-11-26T19:26:41.064Z,5.40
2017-11-26T19:29:08.517Z,5.40
2017-11-26T19:31:35.966Z,5.40
2017-11-26T19:34:03.423Z,5.40
2017-11-26T19:36:30.875Z,5.40
2017-11-26T19:38:58.389Z,5.40
2017-11-26T19:41:26.246Z,5.40
2017-11-26T19:43:54.402Z,5.40
2017-11-26T19:46:21.847Z,5.40
2017-11-26T19:48:49.315Z,5.40
2017-11-26T19:51:17.181Z,5.40
2017-11-26T19:53:44.622Z,5.30
2017-11-26T19:56:12.086Z,5.40
2017-11-26T19:58:45.290Z,5.40
2017-11-26T20:01:13.147Z,5.20
2017-11-26T20:03:40.596Z,5.20
2017-11-26T20:06:08.055Z,5.20
2017-11-26T20:08:35.514Z,5.20
2017-11-26T20:11:02.936Z,5.20
2017-11-26T20:13:30.539Z,5.20
2017-11-26T20:15:58.382Z,5.20
2017-11-26T20:18:25.863Z,5.20
2017-11-26T20:20:53.707Z,5.10
2017-11-26T20:23:21.160Z,5.20
2017-11-26T20:25:48.587Z,5.20
2017-11-26T20:28:16.362Z,5.10
2017-11-26T20:30:44.762Z,5.00
2017-11-26T20:33:12.896Z,5.00
2017-11-26T20:35:40.347Z,5.00
2017-11-26T20:38:07.806Z,5.00
2017-11-26T20:40:35.459Z,5.00
2017-11-26T20:43:02.908Z,5.00
2017-11-26T20:45:30.340Z,5.00
2017-11-26T20:47:57.824Z,5.00
2017-11-26T20:50:25.291Z,5.00
2017-11-26T20:52:52.746Z,5.00
2017-11-26T20:55:27.020Z,5.00
2017-11-26T20:57:54.559Z,5.00
2017-11-26T21:00:22.421Z,5.00
2017-11-26T21:02:55.067Z,5.00
2017-11-26T21:05:22.580Z,5.00
2017-11-26T21:07:50.134Z,5.00
2017-11-26T21:10:20.538Z,5.00
2017-11-26T21:13:02.064Z,5.00
2017-11-26T21:15:32.585Z,5.00
2017-11-26T21:18:02.529Z,5.00
2017-11-26T21:20:31.948Z,5.00
2017-11-26T21:23:01.321Z,4.90
2017-11-26T21:25:28.892Z,4.90
2017-11-26T21:28:00.171Z,4.90
2017-11-26T21:30:27.716Z,4.90
2017-11-26T21:33:01.572Z,4.90
2017-11-26T21:38:30.350Z,4.80
2017-11-26T21:40:58.082Z,4.70
2017-11-26T21:43:26.931Z,4.70
2017-11-26T22:12:56.259Z,4.50
2017-11-26T22:15:31.370Z,4.60
2017-11-26T22:18:02.971Z,4.60
2017-11-26T22:20:31.505Z,4.60
2017-11-26T22:22:59.504Z,4.60
2017-11-26T22:25:26.993Z,4.60
2017-11-26T22:27:58.478Z,4.60
2017-11-26T22:30:36.979Z,4.60
2017-11-26T22:36:23.940Z,4.60
2017-11-26T22:38:51.537Z,4.60
2017-11-26T22:41:20.306Z,4.60
2017-11-26T22:43:48.448Z,4.60
2017-11-26T22:52:24.323Z,4.60
2017-11-26T22:55:27.802Z,4.60
2017-11-26T23:04:05.325Z,4.50
2017-11-26T23:06:33.594Z,4.50
2017-11-26T23:09:01.115Z,4.50
2017-11-26T23:11:51.968Z,4.50
2017-11-26T23:14:21.836Z,4.50
2017-11-26T23:16:55.867Z,4.40
2017-11-26T23:19:36.359Z,4.40
2017-11-26T23:22:04.660Z,4.30
2017-11-26T23:24:32.146Z,4.40
2017-11-26T23:27:01.990Z,4.30
2017-11-26T23:29:31.196Z,4.40
2017-11-26T23:31:59.768Z,4.30
2017-11-26T23:34:30.832Z,4.30
2017-11-26T23:36:58.372Z,4.30
2017-11-26T23:39:26.405Z,4.30
2017-11-26T23:41:57.525Z,4.20
2017-11-26T23:44:25.404Z,4.30
2017-11-26T23:46:52.979Z,4.20
2017-11-26T23:49:20.464Z,4.20
2017-11-26T23:51:48.373Z,4.20
2017-11-26T23:54:15.860Z,4.20
2017-11-26T23:56:43.375Z,4.10
2017-11-26T23:59:10.878Z,4.10
